Time;durP1;ratioP1;P1;durP2;ratioP2;P2;SDS_P1;SDS_P2;PMS_P1;PMS_P2;Temp;Humidity;BMP_temperature;BMP_pressure;BME280_temperature;BME280_humidity;BME280_pressure;Samples;Min_cycle;Max_cycle;Signal;HPM_P1;HPM_P2
2022/04/24 00:00:57;;;;;;;8.00;5.63;;;14.30;57.10;;;;;;5079882;28;20947;-44
2022/04/24 00:03:24;;;;;;;5.90;5.40;;;14.30;57.50;;;;;;5080102;28;20460;-44
2022/04/24 00:05:50;;;;;;;5.30;4.80;;;14.30;57.70;;;;;;5078737;28;20475;-43
2022/04/24 00:08:17;;;;;;;6.40;4.97;;;14.30;57.30;;;;;;5081376;28;20462;-44
2022/04/24 00:10:45;;;;;;;5.73;4.73;;;14.30;57.80;;;;;;5061757;28;20470;-44
2022/04/24 00:13:12;;;;;;;5.83;5.33;;;14.20;57.60;;;;;;5080288;28;20968;-44
2022/04/24 00:15:41;;;;;;;5.13;4.63;;;14.20;57.40;;;;;;5079248;28;20483;-44
2022/04/24 00:18:08;;;;;;;6.33;5.13;;;14.20;57.60;;;;;;5063993;28;20458;-44
2022/04/24 00:20:35;;;;;;;5.90;5.30;;;14.30;57.60;;;;;;5077811;28;20471;-44
2022/04/24 00:23:02;;;;;;;7.73;5.63;;;14.20;57.70;;;;;;5081259;28;22656;-44
2022/04/24 00:25:28;;;;;;;6.70;5.20;;;14.20;58.10;;;;;;5081226;28;20459;-44
2022/04/24 00:27:55;;;;;;;5.57;5.07;;;14.20;57.70;;;;;;5076800;28;20462;-44
2022/04/24 00:30:22;;;;;;;5.83;5.30;;;14.20;57.80;;;;;;5083003;28;20459;-44
2022/04/24 00:32:49;;;;;;;5.13;4.63;;;14.10;57.90;;;;;;5081395;28;20563;-44
2022/04/24 00:35:15;;;;;;;6.00;5.20;;;14.10;58.00;;;;;;5076177;28;20491;-44
2022/04/24 00:37:42;;;;;;;5.00;4.50;;;14.00;57.60;;;;;;5082928;28;20596;-44
2022/04/24 00:40:09;;;;;;;5.37;4.87;;;14.00;57.80;;;;;;5083693;28;20652;-44
2022/04/24 00:42:36;;;;;;;5.27;4.77;;;14.00;57.40;;;;;;5067703;28;20722;-44
2022/04/24 00:45:04;;;;;;;5.00;4.60;;;14.00;57.10;;;;;;5082676;28;20858;-44
2022/04/24 00:47:30;;;;;;;4.57;3.80;;;14.00;57.10;;;;;;5068343;28;21143;-44
2022/04/24 00:49:57;;;;;;;4.47;4.17;;;14.00;57.00;;;;;;5059286;28;21036;-44
2022/04/24 00:52:24;;;;;;;4.70;4.30;;;14.00;56.90;;;;;;5075972;28;20460;-44
2022/04/24 00:54:51;;;;;;;5.50;4.40;;;14.00;56.90;;;;;;5079290;28;20502;-44
2022/04/24 00:57:18;;;;;;;4.03;3.70;;;13.90;56.50;;;;;;5061604;28;20674;-44
2022/04/24 00:59:45;;;;;;;4.30;3.90;;;13.90;56.20;;;;;;5081541;28;20456;-44
2022/04/24 01:02:11;;;;;;;3.90;3.50;;;14.00;55.90;;;;;;5081428;28;20459;-44
2022/04/24 01:04:39;;;;;;;4.30;3.90;;;14.00;55.60;;;;;;5059593;28;20938;-44
2022/04/24 01:07:06;;;;;;;4.10;3.70;;;14.00;55.60;;;;;;5080705;28;20460;-45
2022/04/24 01:09:35;;;;;;;3.87;3.57;;;13.90;55.60;;;;;;5081943;28;20881;-45
2022/04/24 01:12:04;;;;;;;3.93;3.50;;;13.90;55.70;;;;;;5076502;28;20775;-44
2022/04/24 01:14:32;;;;;;;3.90;3.60;;;14.00;55.30;;;;;;5078328;28;20488;-44
2022/04/24 01:17:04;;;;;;;5.10;4.60;;;13.90;55.50;;;;;;5077816;28;20525;-44
2022/04/24 01:19:31;;;;;;;5.67;3.80;;;13.90;54.20;;;;;;5074760;28;20882;-43
2022/04/24 01:21:58;;;;;;;5.00;3.80;;;13.90;54.60;;;;;;5059705;28;20540;-43
2022/04/24 01:24:27;;;;;;;3.83;3.47;;;13.90;54.70;;;;;;5084491;28;20823;-44
2022/04/24 01:26:54;;;;;;;4.20;3.80;;;14.00;54.30;;;;;;5058332;28;20465;-44
2022/04/24 01:29:21;;;;;;;3.83;3.53;;;13.90;54.40;;;;;;5060665;28;20460;-43
2022/04/24 01:31:51;;;;;;;5.30;4.00;;;13.90;54.00;;;;;;5079915;28;20518;-43
2022/04/24 01:34:19;;;;;;;5.67;3.90;;;13.90;53.80;;;;;;5077358;28;20492;-44
2022/04/24 01:36:46;;;;;;;4.47;3.77;;;14.00;53.90;;;;;;5059067;28;20905;-44
2022/04/24 01:39:17;;;;;;;3.87;3.53;;;14.00;54.00;;;;;;5079495;28;20463;-44
2022/04/24 01:41:44;;;;;;;4.20;3.77;;;14.00;54.10;;;;;;5074457;28;20468;-44
2022/04/24 01:44:11;;;;;;;4.00;3.37;;;13.90;53.90;;;;;;5077050;28;20703;-44
2022/04/24 01:46:38;;;;;;;4.43;4.10;;;13.90;54.00;;;;;;5078939;28;20510;-43
2022/04/24 01:49:05;;;;;;;4.30;3.90;;;13.90;53.60;;;;;;5077425;28;20468;-43
2022/04/24 01:51:32;;;;;;;3.50;3.20;;;14.00;52.60;;;;;;5062668;28;20452;-44
2022/04/24 01:53:59;;;;;;;3.50;3.20;;;13.90;52.80;;;;;;5077206;28;20958;-44
2022/04/24 01:56:25;;;;;;;4.20;3.80;;;13.90;52.80;;;;;;5078895;28;20453;-44
2022/04/24 01:58:52;;;;;;;3.80;3.43;;;13.90;53.20;;;;;;5079053;28;20950;-44
2022/04/24 02:01:19;;;;;;;4.40;4.00;;;13.90;52.70;;;;;;5078023;28;20793;-44
2022/04/24 02:03:46;;;;;;;4.20;3.80;;;13.90;52.90;;;;;;5075682;28;20468;-44
2022/04/24 02:06:13;;;;;;;3.60;3.30;;;14.00;52.30;;;;;;5079086;28;21093;-44
2022/04/24 02:08:40;;;;;;;4.20;3.50;;;14.00;52.70;;;;;;5079681;28;20472;-44
2022/04/24 02:11:08;;;;;;;5.53;4.00;;;14.00;52.40;;;;;;5063322;28;20474;-44
2022/04/24 02:13:35;;;;;;;3.90;3.47;;;14.00;52.70;;;;;;5077465;28;20465;-44
2022/04/24 02:16:02;;;;;;;3.63;3.33;;;14.00;52.30;;;;;;5078657;28;20485;-44
2022/04/24 02:18:29;;;;;;;3.83;3.30;;;14.00;52.90;;;;;;5068258;28;20471;-44
2022/04/24 02:20:56;;;;;;;4.20;3.80;;;14.00;52.50;;;;;;5059115;28;21331;-45
2022/04/24 02:23:22;;;;;;;3.83;3.53;;;14.00;52.80;;;;;;5074626;28;20462;-45
2022/04/24 02:25:49;;;;;;;3.73;3.43;;;14.00;53.10;;;;;;5078388;28;20474;-45
2022/04/24 02:28:16;;;;;;;4.53;4.13;;;14.00;52.50;;;;;;5062311;28;20972;-44
2022/04/24 02:30:43;;;;;;;4.17;3.70;;;14.00;52.80;;;;;;5079437;28;20491;-44
2022/04/24 02:33:10;;;;;;;4.10;3.73;;;14.00;52.80;;;;;;5062577;28;20453;-44
2022/04/24 02:35:37;;;;;;;4.57;4.20;;;14.00;53.20;;;;;;5058751;28;20489;-44
2022/04/24 02:38:03;;;;;;;4.23;3.80;;;14.00;52.80;;;;;;5080037;28;20547;-44
2022/04/24 02:40:30;;;;;;;4.43;3.87;;;14.00;52.70;;;;;;5062621;28;20513;-44
2022/04/24 02:42:57;;;;;;;4.23;3.93;;;14.00;53.00;;;;;;5040435;28;20892;-44
2022/04/24 02:45:24;;;;;;;5.43;4.20;;;14.00;52.90;;;;;;5079550;28;20448;-45
2022/04/24 02:47:50;;;;;;;5.03;4.53;;;14.00;53.10;;;;;;5074960;28;20457;-45
2022/04/24 02:50:17;;;;;;;3.70;3.40;;;14.00;52.60;;;;;;5079968;28;20456;-42
2022/04/24 02:52:51;;;;;;;5.00;4.10;;;14.00;52.90;;;;;;5073249;28;20457;-42
2022/04/24 02:55:19;;;;;;;4.37;3.97;;;14.00;52.60;;;;;;5077983;28;20618;-46
2022/04/24 02:57:46;;;;;;;3.80;3.50;;;14.00;53.00;;;;;;5082241;28;20475;-46
2022/04/24 03:00:19;;;;;;;4.67;4.10;;;14.00;52.90;;;;;;5083871;28;20468;-46
2022/04/24 03:02:47;;;;;;;4.80;4.10;;;14.00;53.20;;;;;;5071430;28;20455;-46
2022/04/24 03:05:16;;;;;;;4.40;4.00;;;14.00;53.10;;;;;;5081901;28;20496;-46
2022/04/24 03:07:44;;;;;;;4.13;3.83;;;14.00;53.10;;;;;;5081895;28;20559;-47
2022/04/24 03:10:12;;;;;;;5.43;3.97;;;14.00;52.90;;;;;;5086005;28;20460;-47
2022/04/24 03:12:40;;;;;;;4.90;3.40;;;14.00;52.90;;;;;;5085444;28;20986;-47
2022/04/24 03:15:08;;;;;;;6.93;4.53;;;14.00;53.40;;;;;;5080660;28;20500;-46
2022/04/24 03:17:36;;;;;;;4.30;3.90;;;14.00;53.00;;;;;;5079779;28;20463;-46
2022/04/24 03:20:05;;;;;;;4.73;4.33;;;14.00;53.00;;;;;;5083094;28;20460;-46
2022/04/24 03:22:33;;;;;;;4.53;3.97;;;13.90;53.20;;;;;;5078181;28;20506;-46
2022/04/24 03:25:01;;;;;;;5.67;4.80;;;14.00;53.10;;;;;;5084365;28;20973;-47
2022/04/24 03:27:28;;;;;;;4.67;3.60;;;13.90;53.10;;;;;;5064091;28;20462;-47
2022/04/24 03:29:55;;;;;;;3.80;3.50;;;14.00;53.00;;;;;;5078717;28;21045;-47
2022/04/24 03:32:22;;;;;;;4.97;4.57;;;14.00;53.20;;;;;;5078163;28;20575;-47
2022/04/24 03:34:50;;;;;;;5.03;3.80;;;14.00;53.40;;;;;;5078654;28;20523;-47
2022/04/24 03:37:17;;;;;;;4.37;3.90;;;13.90;53.00;;;;;;5087713;28;20473;-47
2022/04/24 03:39:44;;;;;;;4.20;3.80;;;14.00;52.60;;;;;;5083756;28;20449;-47
2022/04/24 03:42:11;;;;;;;4.77;4.40;;;13.90;52.90;;;;;;5084324;28;21052;-47
2022/04/24 03:44:37;;;;;;;4.73;4.17;;;13.90;52.90;;;;;;5084146;28;20453;-47
2022/04/24 03:47:06;;;;;;;7.50;4.33;;;13.90;53.00;;;;;;5085482;28;20464;-47
2022/04/24 03:49:33;;;;;;;4.60;4.10;;;14.00;52.40;;;;;;5085444;28;20949;-47
2022/04/24 03:52:00;;;;;;;4.63;4.23;;;14.00;52.80;;;;;;5082597;28;20456;-47
2022/04/24 03:54:27;;;;;;;5.40;4.30;;;13.90;53.00;;;;;;5081327;28;20456;-47
2022/04/24 03:56:53;;;;;;;4.77;4.30;;;14.00;53.00;;;;;;5076293;28;20473;-47
2022/04/24 03:59:21;;;;;;;4.40;4.00;;;14.00;52.70;;;;;;5084525;28;20487;-47
2022/04/24 04:01:48;;;;;;;4.53;4.10;;;13.90;53.40;;;;;;5081576;28;20492;-47
2022/04/24 04:04:15;;;;;;;4.47;4.07;;;13.90;53.50;;;;;;5081102;28;20466;-47
2022/04/24 04:06:42;;;;;;;4.17;3.80;;;13.90;53.30;;;;;;5082235;28;20455;-47
2022/04/24 04:09:10;;;;;;;4.00;3.60;;;13.90;53.00;;;;;;5081394;28;20821;-47
2022/04/24 04:11:37;;;;;;;4.90;4.37;;;13.90;53.20;;;;;;5083606;28;20469;-47
2022/04/24 04:14:03;;;;;;;4.97;4.43;;;13.90;53.80;;;;;;5077869;28;20825;-47
2022/04/24 04:16:30;;;;;;;5.27;4.77;;;13.90;53.60;;;;;;5061272;28;20484;-47
2022/04/24 04:18:57;;;;;;;5.47;3.93;;;13.90;53.10;;;;;;5078845;28;20455;-47
2022/04/24 04:21:24;;;;;;;4.77;4.30;;;13.90;52.80;;;;;;5067223;28;20457;-47
2022/04/24 04:23:51;;;;;;;5.23;4.10;;;13.90;52.70;;;;;;5082697;28;20464;-47
2022/04/24 04:26:18;;;;;;;5.70;4.70;;;13.90;52.70;;;;;;5084281;28;20456;-47
2022/04/24 04:28:45;;;;;;;6.90;4.90;;;13.90;52.70;;;;;;5080338;28;20805;-47
2022/04/24 04:31:14;;;;;;;5.97;5.00;;;13.90;52.70;;;;;;5083233;28;20838;-46
2022/04/24 04:33:41;;;;;;;8.13;5.20;;;14.00;53.10;;;;;;5078124;28;20554;-46
2022/04/24 04:36:08;;;;;;;5.37;4.70;;;14.00;52.90;;;;;;5064730;28;20842;-47
2022/04/24 04:38:35;;;;;;;6.47;5.77;;;14.00;52.90;;;;;;5082837;28;20463;-47
2022/04/24 04:41:03;;;;;;;6.03;4.80;;;14.00;53.40;;;;;;5084318;28;20532;-46
2022/04/24 04:43:31;;;;;;;5.20;4.70;;;14.00;54.30;;;;;;5082851;28;20456;-46
2022/04/24 04:45:57;;;;;;;6.93;4.67;;;14.00;55.00;;;;;;5085545;28;20467;-46
2022/04/24 04:48:25;;;;;;;5.90;5.30;;;14.00;55.30;;;;;;5066333;28;20467;-46
2022/04/24 04:50:52;;;;;;;6.43;5.20;;;14.00;55.20;;;;;;5071153;28;20503;-46
2022/04/24 04:53:20;;;;;;;6.00;4.60;;;14.00;56.70;;;;;;5087382;28;20895;-46
2022/04/24 04:55:46;;;;;;;6.30;5.70;;;14.00;56.60;;;;;;5084337;28;20493;-46
2022/04/24 04:58:13;;;;;;;6.00;5.40;;;14.00;56.40;;;;;;5082337;28;20513;-46
2022/04/24 05:00:40;;;;;;;5.37;4.80;;;14.00;56.30;;;;;;5070011;28;20460;-46
2022/04/24 05:03:07;;;;;;;5.30;4.67;;;14.00;56.40;;;;;;5084397;28;21007;-46
2022/04/24 05:05:34;;;;;;;6.53;5.53;;;14.00;56.60;;;;;;5083437;28;20496;-46
2022/04/24 05:08:01;;;;;;;5.33;4.93;;;14.00;56.60;;;;;;5083983;28;21025;-46
2022/04/24 05:10:27;;;;;;;6.10;5.50;;;13.90;56.10;;;;;;5064672;28;21026;-46
2022/04/24 05:12:54;;;;;;;6.03;5.43;;;13.90;55.80;;;;;;5082586;28;20539;-46
2022/04/24 05:15:21;;;;;;;5.20;4.40;;;13.90;56.20;;;;;;5084202;28;20490;-46
2022/04/24 05:17:48;;;;;;;5.77;5.17;;;13.90;55.70;;;;;;5080583;28;20869;-46
2022/04/24 05:20:15;;;;;;;5.60;5.10;;;13.90;55.60;;;;;;5083862;28;20466;-46
2022/04/24 05:22:41;;;;;;;6.27;5.17;;;13.90;56.30;;;;;;5082589;28;20464;-46
2022/04/24 05:25:10;;;;;;;6.70;4.70;;;13.90;56.40;;;;;;5085550;28;20453;-46
2022/04/24 05:27:37;;;;;;;6.63;5.23;;;13.90;56.60;;;;;;5064838;28;20456;-46
2022/04/24 05:30:05;;;;;;;6.77;5.70;;;13.90;56.80;;;;;;5083524;28;20856;-46
2022/04/24 05:32:46;;;;;;;5.57;5.07;;;13.90;56.10;;;;;;5083017;28;20473;-46
2022/04/24 05:35:13;;;;;;;6.17;4.83;;;13.90;56.40;;;;;;5062581;28;20496;-46
2022/04/24 05:37:41;;;;;;;6.80;6.10;;;13.90;56.20;;;;;;5083098;28;20464;-46
2022/04/24 05:40:08;;;;;;;6.13;5.13;;;13.90;56.60;;;;;;5084714;28;20464;-47
2022/04/24 05:42:43;;;;;;;5.60;5.10;;;13.90;56.40;;;;;;5078786;28;20457;-47
2022/04/24 05:45:14;;;;;;;7.10;6.00;;;13.90;56.70;;;;;;5083271;28;20464;-47
2022/04/24 05:47:44;;;;;;;6.23;5.37;;;13.90;56.70;;;;;;5079191;28;20456;-46
2022/04/24 05:50:12;;;;;;;6.43;5.83;;;13.90;56.50;;;;;;5079619;28;20463;-46
2022/04/24 05:52:40;;;;;;;6.17;5.60;;;13.90;56.80;;;;;;5078992;28;20478;-47
2022/04/24 05:55:08;;;;;;;6.60;5.80;;;13.90;57.00;;;;;;5084180;28;20479;-47
2022/04/24 05:57:36;;;;;;;5.70;5.07;;;13.90;56.90;;;;;;5080641;28;20441;-46
2022/04/24 06:00:08;;;;;;;5.63;5.10;;;14.00;57.30;;;;;;5089489;28;20460;-46
2022/04/24 06:02:35;;;;;;;6.57;5.87;;;14.00;56.50;;;;;;5081528;28;20455;-46
2022/04/24 06:05:02;;;;;;;6.30;5.70;;;14.00;56.60;;;;;;5084130;28;20474;-46
2022/04/24 06:07:28;;;;;;;6.57;5.63;;;14.00;56.80;;;;;;5083415;28;21015;-46
2022/04/24 06:09:55;;;;;;;5.87;5.30;;;14.00;56.90;;;;;;5086811;28;20828;-46
2022/04/24 06:12:22;;;;;;;7.07;6.37;;;14.00;56.60;;;;;;5082043;28;20471;-46
2022/04/24 06:14:48;;;;;;;6.47;5.87;;;14.00;57.20;;;;;;5080769;28;20472;-46
2022/04/24 06:17:15;;;;;;;6.90;6.20;;;14.00;56.90;;;;;;5076206;28;20483;-46
2022/04/24 06:19:42;;;;;;;7.50;6.77;;;14.00;57.20;;;;;;5067113;28;20456;-46
2022/04/24 06:22:09;;;;;;;6.43;5.83;;;14.00;56.90;;;;;;5078628;28;20724;-46
2022/04/24 06:24:35;;;;;;;7.00;6.23;;;14.00;56.40;;;;;;5081248;28;20501;-47
2022/04/24 06:27:03;;;;;;;7.20;6.27;;;14.00;56.20;;;;;;5082780;28;20514;-47
2022/04/24 06:29:31;;;;;;;6.70;5.73;;;14.10;56.20;;;;;;5084019;28;20547;-46
2022/04/24 06:31:58;;;;;;;6.20;5.60;;;14.10;56.40;;;;;;5080805;28;20484;-46
2022/04/24 06:34:25;;;;;;;8.37;7.23;;;14.10;56.50;;;;;;5082004;28;20834;-46
2022/04/24 06:36:52;;;;;;;7.10;6.40;;;14.10;57.30;;;;;;5083556;28;20483;-47
2022/04/24 06:39:18;;;;;;;6.80;6.10;;;14.20;58.50;;;;;;5082058;28;20460;-47
2022/04/24 06:41:45;;;;;;;7.60;6.90;;;14.20;58.00;;;;;;5082004;28;20489;-47
2022/04/24 06:44:13;;;;;;;6.60;6.00;;;14.20;58.00;;;;;;5085023;28;20814;-47
2022/04/24 06:46:39;;;;;;;7.03;6.43;;;14.20;58.60;;;;;;5066562;28;20530;-47
2022/04/24 06:49:06;;;;;;;6.40;5.90;;;14.20;57.40;;;;;;5088309;28;21069;-46
2022/04/24 06:51:33;;;;;;;7.67;6.97;;;14.10;57.20;;;;;;5083006;28;20460;-46
2022/04/24 06:53:59;;;;;;;8.40;7.30;;;14.20;58.60;;;;;;5083679;28;20457;-46
2022/04/24 06:56:26;;;;;;;8.27;6.90;;;14.30;58.20;;;;;;5063991;28;21042;-46
2022/04/24 06:58:53;;;;;;;7.40;6.70;;;14.20;58.50;;;;;;5082233;28;21023;-47
2022/04/24 07:01:21;;;;;;;8.30;6.93;;;14.20;58.70;;;;;;5061847;28;20461;-46
2022/04/24 07:03:48;;;;;;;6.70;6.10;;;14.30;58.40;;;;;;5077445;28;20547;-46
2022/04/24 07:06:21;;;;;;;8.53;6.80;;;14.20;58.40;;;;;;5084277;28;20524;-46
2022/04/24 07:08:48;;;;;;;7.50;6.80;;;14.20;58.60;;;;;;5078237;28;20571;-46
2022/04/24 07:11:15;;;;;;;9.70;7.90;;;14.20;59.00;;;;;;5085812;28;20473;-47
2022/04/24 07:13:41;;;;;;;7.70;6.90;;;14.20;58.70;;;;;;5083332;28;20552;-46
2022/04/24 07:16:08;;;;;;;7.10;6.40;;;14.30;58.70;;;;;;5080347;28;20481;-47
2022/04/24 07:18:35;;;;;;;7.67;6.70;;;14.30;58.50;;;;;;5084030;28;20461;-47
2022/04/24 07:21:02;;;;;;;7.33;6.67;;;14.30;59.10;;;;;;5080003;28;20456;-47
2022/04/24 07:23:30;;;;;;;6.70;6.20;;;14.30;58.40;;;;;;5083482;28;20489;-47
2022/04/24 07:25:56;;;;;;;7.30;6.60;;;14.30;59.10;;;;;;5079773;28;20499;-46
2022/04/24 07:28:23;;;;;;;7.90;6.40;;;14.30;58.90;;;;;;5079317;28;20455;-47
2022/04/24 07:30:50;;;;;;;8.70;7.80;;;14.40;59.10;;;;;;5065387;28;20509;-46
2022/04/24 07:33:17;;;;;;;8.37;6.77;;;14.40;59.40;;;;;;5087127;28;20880;-46
2022/04/24 07:35:44;;;;;;;7.37;6.67;;;14.40;59.80;;;;;;5079314;28;20461;-47
2022/04/24 07:38:11;;;;;;;7.90;7.10;;;14.40;59.50;;;;;;5082501;28;20886;-46
2022/04/24 07:40:39;;;;;;;7.67;6.83;;;14.50;59.70;;;;;;5079510;28;20460;-47
2022/04/24 07:43:08;;;;;;;10.17;8.07;;;14.50;59.40;;;;;;5078676;28;20527;-46
2022/04/24 07:45:40;;;;;;;8.87;7.90;;;14.50;59.10;;;;;;5085012;28;20822;-47
2022/04/24 07:48:08;;;;;;;10.13;8.60;;;14.50;60.10;;;;;;5082347;28;20578;-46
2022/04/24 07:50:37;;;;;;;9.00;8.10;;;14.50;60.30;;;;;;5080579;28;20464;-46
2022/04/24 07:53:05;;;;;;;9.40;7.17;;;14.50;59.50;;;;;;5084455;28;20491;-46
2022/04/24 07:55:32;;;;;;;9.40;8.40;;;14.50;59.70;;;;;;5078690;28;20816;-46
2022/04/24 07:58:00;;;;;;;11.13;9.03;;;14.50;60.20;;;;;;5081517;28;20461;-45
2022/04/24 08:00:28;;;;;;;8.37;7.57;;;14.50;59.70;;;;;;5065311;28;20462;-46
2022/04/24 08:03:02;;;;;;;10.20;8.40;;;14.50;60.30;;;;;;5079290;28;20461;-47
2022/04/24 08:05:33;;;;;;;9.33;8.40;;;14.50;60.20;;;;;;5084202;28;20954;-47
2022/04/24 08:08:02;;;;;;;9.37;8.37;;;14.60;59.20;;;;;;5077430;28;20467;-47
2022/04/24 08:10:31;;;;;;;8.20;7.40;;;14.60;58.90;;;;;;5061165;28;20469;-47
2022/04/24 08:12:59;;;;;;;8.43;7.63;;;14.60;58.60;;;;;;5084364;28;20848;-47
2022/04/24 08:15:26;;;;;;;8.70;7.90;;;14.60;58.40;;;;;;5078949;28;20455;-47
2022/04/24 08:17:53;;;;;;;9.63;8.73;;;14.60;58.30;;;;;;5083401;28;20503;-47
2022/04/24 08:20:19;;;;;;;8.07;7.30;;;14.70;59.60;;;;;;5079480;28;20443;-47
2022/04/24 08:22:49;;;;;;;10.00;8.10;;;14.70;60.00;;;;;;5077541;28;20456;-47
2022/04/24 08:25:18;;;;;;;10.17;8.90;;;14.80;60.10;;;;;;5067563;28;20456;-47
2022/04/24 08:27:47;;;;;;;8.57;7.77;;;14.80;59.50;;;;;;5085191;28;20467;-47
2022/04/24 08:30:14;;;;;;;11.10;8.90;;;14.80;58.80;;;;;;5069513;28;20464;-47
2022/04/24 08:32:42;;;;;;;11.47;8.40;;;14.80;59.00;;;;;;5067061;28;20480;-47
2022/04/24 08:35:11;;;;;;;10.10;9.10;;;14.80;58.00;;;;;;5085941;28;20479;-47
2022/04/24 08:37:39;;;;;;;10.90;8.03;;;14.80;57.50;;;;;;5085055;28;20490;-47
2022/04/24 08:40:08;;;;;;;10.27;9.27;;;14.80;57.80;;;;;;5087475;28;20460;-47
2022/04/24 08:42:35;;;;;;;9.47;8.47;;;14.90;57.70;;;;;;5070278;28;20483;-47
2022/04/24 08:45:04;;;;;;;9.30;8.50;;;14.90;57.80;;;;;;5087201;28;20449;-47
2022/04/24 08:47:31;;;;;;;9.30;8.40;;;14.90;59.00;;;;;;5086957;28;20470;-47
2022/04/24 08:49:59;;;;;;;8.90;8.10;;;14.90;59.60;;;;;;5069428;28;20474;-47
2022/04/24 08:52:27;;;;;;;11.70;8.77;;;15.00;59.50;;;;;;5081785;28;20501;-46
2022/04/24 08:54:55;;;;;;;9.20;7.90;;;15.00;59.70;;;;;;5049738;28;20466;-46
2022/04/24 08:57:26;;;;;;;9.40;8.50;;;15.00;59.70;;;;;;5082068;28;21011;-47
2022/04/24 08:59:54;;;;;;;11.27;9.87;;;15.00;60.00;;;;;;5084128;28;20522;-46
2022/04/24 09:02:41;;;;;;;10.40;9.23;;;15.00;60.10;;;;;;5085163;28;20464;-46
2022/04/24 09:05:09;;;;;;;9.53;8.63;;;15.00;59.50;;;;;;5083352;28;20464;-46
2022/04/24 09:07:38;;;;;;;9.70;8.80;;;15.10;59.30;;;;;;5081828;28;20811;-46
2022/04/24 09:10:22;;;;;;;9.73;8.83;;;15.20;59.90;;;;;;5078944;28;20593;-46
2022/04/24 09:12:54;;;;;;;10.07;9.03;;;15.30;58.30;;;;;;5084220;28;20563;-47
2022/04/24 09:15:20;;;;;;;9.80;8.80;;;15.50;58.20;;;;;;5084776;28;20469;-47
2022/04/24 09:17:47;;;;;;;10.23;9.33;;;15.60;57.90;;;;;;5085896;28;20483;-47
2022/04/24 09:20:20;;;;;;;15.30;10.57;;;15.70;56.80;;;;;;5081018;28;20456;-47
2022/04/24 09:22:47;;;;;;;9.10;8.03;;;15.90;54.90;;;;;;5077615;28;20460;-47
2022/04/24 09:25:14;;;;;;;10.90;9.33;;;16.10;54.60;;;;;;5073721;28;20464;-47
2022/04/24 09:27:41;;;;;;;9.80;8.90;;;16.30;54.20;;;;;;5071901;28;20467;-48
2022/04/24 09:30:13;;;;;;;10.00;9.00;;;16.60;54.30;;;;;;5077569;28;20469;-47
2022/04/24 09:32:49;;;;;;;11.00;9.93;;;16.80;53.30;;;;;;5077121;28;20487;-47
2022/04/24 09:35:29;;;;;;;11.03;8.90;;;16.90;51.50;;;;;;5081389;28;20868;-48
2022/04/24 09:38:13;;;;;;;10.40;9.40;;;17.40;52.00;;;;;;5079514;28;21006;-47
2022/04/24 09:40:45;;;;;;;9.23;8.23;;;17.80;50.70;;;;;;5073570;28;20961;-48
2022/04/24 09:43:14;;;;;;;9.63;8.63;;;18.00;50.20;;;;;;5076261;28;20561;-48
2022/04/24 09:45:50;;;;;;;10.70;9.60;;;18.20;51.30;;;;;;5080479;28;20820;-47
2022/04/24 09:48:19;;;;;;;10.50;9.40;;;18.20;49.40;;;;;;5075752;28;20457;-47
2022/04/24 09:50:49;;;;;;;12.00;9.60;;;18.20;49.40;;;;;;5074627;28;20510;-48
2022/04/24 09:53:20;;;;;;;10.83;9.73;;;18.00;49.30;;;;;;5079009;28;20461;-48
2022/04/24 09:55:51;;;;;;;11.63;10.40;;;17.90;49.50;;;;;;5059101;28;20472;-48
2022/04/24 09:58:22;;;;;;;10.40;9.33;;;17.90;49.90;;;;;;5077206;28;20499;-47
2022/04/24 10:00:51;;;;;;;9.90;8.93;;;17.90;51.60;;;;;;5066847;28;20490;-48
2022/04/24 10:03:20;;;;;;;10.63;9.53;;;18.00;51.80;;;;;;5075954;28;20465;-48
2022/04/24 10:05:48;;;;;;;10.07;9.10;;;18.10;52.00;;;;;;5062411;28;20958;-47
2022/04/24 10:08:17;;;;;;;12.10;9.30;;;18.20;51.30;;;;;;5077733;28;20465;-47
2022/04/24 10:10:50;;;;;;;10.07;9.07;;;18.20;50.20;;;;;;5063891;28;20951;-47
2022/04/24 10:13:18;;;;;;;12.60;10.00;;;18.20;49.50;;;;;;5061290;28;20777;-47
2022/04/24 10:15:56;;;;;;;10.47;9.37;;;18.10;49.70;;;;;;5073877;28;20544;-46
2022/04/24 10:18:32;;;;;;;9.60;8.70;;;18.10;49.90;;;;;;5077373;28;20541;-47
2022/04/24 10:21:17;;;;;;;13.20;10.07;;;18.20;50.00;;;;;;5074960;28;20845;-47
2022/04/24 10:23:44;;;;;;;11.33;10.13;;;18.20;50.50;;;;;;5077973;28;20466;-47
2022/04/24 10:26:19;;;;;;;10.27;9.27;;;18.30;50.80;;;;;;5079629;28;20860;-47
2022/04/24 10:28:46;;;;;;;10.77;8.80;;;18.40;52.00;;;;;;5078094;28;21152;-47
2022/04/24 10:31:15;;;;;;;12.23;11.00;;;18.60;51.30;;;;;;5064390;28;20475;-47
2022/04/24 10:33:55;;;;;;;11.50;10.30;;;18.60;51.30;;;;;;5075915;28;20461;-47
2022/04/24 10:36:23;;;;;;;14.53;10.20;;;18.50;49.70;;;;;;5077659;28;20871;-47
2022/04/24 10:38:57;;;;;;;10.80;9.77;;;18.40;49.70;;;;;;5078672;28;20865;-47
2022/04/24 10:41:54;;;;;;;10.27;9.20;;;18.30;49.90;;;;;;5074648;28;20461;-46
2022/04/24 10:44:22;;;;;;;10.13;8.60;;;18.20;49.70;;;;;;5078086;28;20454;-46
2022/04/24 10:46:50;;;;;;;11.00;8.70;;;18.20;50.30;;;;;;5078362;28;20502;-47
2022/04/24 10:49:18;;;;;;;11.37;10.23;;;18.10;50.80;;;;;;5058108;28;21097;-47
2022/04/24 10:51:57;;;;;;;11.50;9.83;;;18.00;50.50;;;;;;5076863;28;20549;-47
2022/04/24 10:54:34;;;;;;;12.93;11.50;;;17.90;50.40;;;;;;5079367;28;20502;-47
2022/04/24 10:57:15;;;;;;;11.20;9.33;;;17.80;50.70;;;;;;5064175;28;20953;-47
2022/04/24 10:59:52;;;;;;;11.40;9.93;;;17.70;50.90;;;;;;5081085;28;20459;-47
2022/04/24 11:02:28;;;;;;;10.63;9.53;;;17.60;51.10;;;;;;5075837;28;20480;-47
2022/04/24 11:05:06;;;;;;;10.40;9.40;;;17.50;51.20;;;;;;5073693;28;20453;-47
2022/04/24 11:07:33;;;;;;;11.90;10.70;;;17.50;51.30;;;;;;5059439;28;20458;-47
2022/04/24 11:10:02;;;;;;;14.07;11.00;;;17.40;51.50;;;;;;5078974;28;20472;-47
2022/04/24 11:12:33;;;;;;;11.83;10.63;;;17.40;51.70;;;;;;5073899;28;20528;-47
2022/04/24 11:15:04;;;;;;;12.87;10.93;;;17.30;51.80;;;;;;5081030;28;20472;-47
2022/04/24 11:17:31;;;;;;;11.20;10.10;;;17.30;51.90;;;;;;5057373;28;20491;-47
2022/04/24 11:20:09;;;;;;;11.47;10.20;;;17.20;51.90;;;;;;5079289;28;20453;-47
2022/04/24 11:22:52;;;;;;;13.13;11.10;;;17.20;52.10;;;;;;5079306;28;20465;-47
2022/04/24 11:25:21;;;;;;;13.87;11.80;;;17.10;52.40;;;;;;5064216;28;20470;-47
2022/04/24 11:27:59;;;;;;;15.73;11.13;;;17.10;52.30;;;;;;5055924;28;20883;-47
2022/04/24 11:30:37;;;;;;;12.20;11.00;;;17.10;53.00;;;;;;5075349;28;20457;-46
2022/04/24 11:33:06;;;;;;;15.20;12.00;;;17.10;54.00;;;;;;5055357;28;20824;-47
2022/04/24 11:35:36;;;;;;;12.67;11.30;;;17.00;53.80;;;;;;5077034;28;20547;-47
2022/04/24 11:38:08;;;;;;;14.13;12.57;;;16.90;53.60;;;;;;5075418;28;20538;-46
2022/04/24 11:40:44;;;;;;;14.37;11.80;;;16.90;53.30;;;;;;5073645;28;20466;-47
2022/04/24 11:43:18;;;;;;;12.50;11.00;;;16.80;53.30;;;;;;5074910;28;20572;-47
2022/04/24 11:51:32;;;;;;;15.27;11.90;;;16.80;55.70;;;;;;5078020;28;20468;-47
2022/04/24 11:54:11;;;;;;;15.10;11.77;;;16.80;54.70;;;;;;5077578;28;20469;-48
2022/04/24 11:56:38;;;;;;;14.07;11.53;;;16.70;54.30;;;;;;5063190;28;20815;-47
2022/04/24 11:59:16;;;;;;;12.80;11.57;;;16.60;54.20;;;;;;5064787;28;20982;-48
2022/04/24 12:01:45;;;;;;;12.47;11.03;;;16.60;55.50;;;;;;5059924;28;20833;-47
2022/04/24 12:04:19;;;;;;;12.53;11.33;;;16.60;55.40;;;;;;5074687;28;20480;-47
2022/04/24 12:06:47;;;;;;;13.77;11.67;;;16.60;55.20;;;;;;5061601;28;20522;-47
2022/04/24 12:09:20;;;;;;;11.40;10.20;;;16.60;55.50;;;;;;5077623;28;20490;-47
2022/04/24 12:12:03;;;;;;;11.37;10.27;;;16.60;56.90;;;;;;5075247;28;20503;-47
2022/04/24 12:14:30;;;;;;;9.43;8.53;;;16.60;57.10;;;;;;5078436;28;20459;-47
2022/04/24 12:17:02;;;;;;;10.60;9.60;;;16.70;55.30;;;;;;5080169;28;20442;-47
2022/04/24 12:19:29;;;;;;;11.50;10.30;;;16.70;54.70;;;;;;5079704;28;20487;-48
2022/04/24 12:22:04;;;;;;;10.47;9.37;;;16.70;54.00;;;;;;5078615;28;20449;-48
2022/04/24 12:24:39;;;;;;;10.60;9.30;;;16.60;54.20;;;;;;5078040;28;20459;-47
2022/04/24 12:27:09;;;;;;;9.50;8.60;;;16.60;54.00;;;;;;5063367;28;20547;-47
2022/04/24 12:29:41;;;;;;;8.97;8.17;;;16.60;53.40;;;;;;5063797;28;20448;-47
2022/04/24 12:32:12;;;;;;;10.43;9.43;;;16.70;53.40;;;;;;5061449;28;20888;-47
2022/04/24 12:34:39;;;;;;;14.17;9.30;;;16.70;53.20;;;;;;5066577;28;20463;-47
2022/04/24 12:37:07;;;;;;;10.30;8.43;;;16.70;53.20;;;;;;5079942;28;21040;-47
2022/04/24 12:39:34;;;;;;;9.47;8.30;;;16.80;53.50;;;;;;5079678;28;20455;-47
2022/04/24 12:42:15;;;;;;;9.23;8.33;;;16.80;52.20;;;;;;5072946;28;20452;-47
2022/04/24 12:44:42;;;;;;;8.40;7.60;;;16.90;51.40;;;;;;5075678;28;20497;-47
2022/04/24 12:47:10;;;;;;;9.67;8.67;;;16.90;51.90;;;;;;5074682;28;20565;-47
2022/04/24 12:49:37;;;;;;;9.80;8.47;;;17.10;52.70;;;;;;5070492;28;20471;-48
2022/04/24 12:52:04;;;;;;;9.60;8.70;;;17.20;51.60;;;;;;5074720;28;20465;-47
2022/04/24 12:54:31;;;;;;;9.37;8.53;;;17.30;51.60;;;;;;5058149;28;20457;-47
2022/04/24 12:56:58;;;;;;;10.43;8.80;;;17.40;50.80;;;;;;5074069;28;20983;-47